Time;durP1;ratioP1;P1;durP2;ratioP2;P2;SDS_P1;SDS_P2;PMS_P1;PMS_P2;Temp;Humidity;BMP_temperature;BMP_pressure;BME280_temperature;BME280_humidity;BME280_pressure;Samples;Min_cycle;Max_cycle;Signal;HPM_P1;HPM_P2
2021/04/24 00:00:22;;;;;;;1.77;0.95;;;;;;;26.57;23.85;97273.03;5033651;28;20052;-26
2021/04/24 00:02:48;;;;;;;2.00;1.02;;;;;;;26.56;23.97;97264.31;5049209;28;20530;-28
2021/04/24 00:05:37;;;;;;;1.92;0.77;;;;;;;26.57;23.85;97273.03;5038727;28;20028;-31
2021/04/24 00:08:04;;;;;;;1.92;0.85;;;;;;;26.54;23.86;97265.31;5032635;28;21045;-25
2021/04/24 00:10:31;;;;;;;2.13;0.90;;;;;;;26.56;24.00;97268.69;5034868;28;20025;-32
2021/04/24 00:12:56;;;;;;;1.90;0.95;;;;;;;26.55;23.86;97264.38;5037505;28;20047;-28
2021/04/24 00:15:22;;;;;;;1.13;0.73;;;;;;;26.54;24.07;97260.88;5031327;28;20037;-30
2021/04/24 00:17:47;;;;;;;1.95;1.08;;;;;;;26.55;24.01;97267.84;5033216;28;20087;-27
2021/04/24 00:20:15;;;;;;;1.52;0.82;;;;;;;26.54;23.89;97266.16;5030488;28;20194;-28
2021/04/24 00:22:41;;;;;;;1.80;0.90;;;;;;;26.55;24.00;97267.00;5035280;28;20036;-30
2021/04/24 00:25:07;;;;;;;1.65;0.90;;;;;;;26.54;23.99;97263.50;5033935;28;20047;-29
2021/04/24 00:27:33;;;;;;;3.40;1.23;;;;;;;26.54;24.04;97263.50;5035136;28;20043;-25
2021/04/24 00:29:58;;;;;;;1.92;1.00;;;;;;;26.53;24.05;97253.94;5035843;28;20029;-31
2021/04/24 00:32:24;;;;;;;1.98;1.25;;;;;;;26.54;23.89;97258.25;5039241;28;20063;-28
2021/04/24 00:34:49;;;;;;;1.25;0.98;;;;;;;26.54;23.90;97255.63;5035296;28;20032;-29
2021/04/24 00:37:14;;;;;;;2.13;1.25;;;;;;;26.54;24.01;97260.88;5033212;28;20029;-28
2021/04/24 00:39:40;;;;;;;2.38;1.00;;;;;;;26.53;24.01;97253.94;5034514;28;20056;-32
2021/04/24 00:42:05;;;;;;;2.72;1.00;;;;;;;26.52;23.98;97257.50;5037974;28;20637;-29
2021/04/24 00:44:31;;;;;;;2.20;0.80;;;;;;;26.52;23.92;97249.63;5030587;28;20090;-29
2021/04/24 00:46:56;;;;;;;2.35;0.95;;;;;;;26.52;23.91;97249.63;5037271;28;20044;-28
2021/04/24 00:49:21;;;;;;;1.52;1.13;;;;;;;26.52;23.97;97251.38;5034646;28;20025;-28
2021/04/24 00:51:47;;;;;;;3.58;1.05;;;;;;;26.51;24.12;97247.91;5033691;28;20201;-28
2021/04/24 00:54:12;;;;;;;2.50;0.90;;;;;;;26.52;24.08;97252.25;5026708;28;20490;-29
2021/04/24 00:56:38;;;;;;;1.80;1.00;;;;;;;26.52;24.02;97246.13;5023968;28;22945;-27
2021/04/24 00:59:03;;;;;;;1.67;0.95;;;;;;;26.51;24.09;97240.03;5030432;28;20032;-32
2021/04/24 01:01:28;;;;;;;1.80;0.90;;;;;;;26.51;23.94;97236.53;5034137;28;20029;-28
2021/04/24 01:03:54;;;;;;;1.85;0.98;;;;;;;26.51;24.09;97232.16;5037125;28;20826;-31
2021/04/24 01:06:19;;;;;;;2.00;0.90;;;;;;;26.50;24.01;97225.16;5014963;28;20496;-31
2021/04/24 01:08:45;;;;;;;3.50;1.10;;;;;;;26.50;23.92;97229.59;5034624;28;20044;-28
2021/04/24 01:11:10;;;;;;;3.25;1.13;;;;;;;26.50;24.10;97227.78;5032395;28;20206;-30
2021/04/24 01:13:35;;;;;;;1.65;0.70;;;;;;;26.49;24.05;97223.47;5035483;28;20585;-29
2021/04/24 01:16:01;;;;;;;3.17;0.98;;;;;;;26.50;24.02;97219.91;5034797;28;20029;-27
2021/04/24 01:18:26;;;;;;;2.72;0.95;;;;;;;26.49;23.98;97220.84;5035282;28;20032;-28
2021/04/24 01:20:52;;;;;;;1.42;0.77;;;;;;;26.49;23.99;97220.84;5031951;28;20021;-28
2021/04/24 01:23:18;;;;;;;2.38;0.90;;;;;;;26.49;23.94;97226.09;5034732;28;20465;-32
2021/04/24 01:25:43;;;;;;;1.48;0.70;;;;;;;26.49;23.95;97226.09;5033236;28;20072;-25
2021/04/24 01:28:09;;;;;;;2.67;1.00;;;;;;;26.45;23.97;97219.28;5032385;28;20037;-26
2021/04/24 01:30:38;;;;;;;2.03;1.00;;;;;;;26.48;24.09;97224.41;5037128;28;20040;-30
2021/04/24 01:33:09;;;;;;;1.98;1.20;;;;;;;26.47;24.00;97225.34;5035759;28;20043;-29
2021/04/24 01:35:35;;;;;;;1.77;1.00;;;;;;;26.47;24.07;97226.16;5036069;28;20060;-28
2021/04/24 01:38:00;;;;;;;2.53;1.20;;;;;;;26.48;23.98;97224.41;5036021;28;20112;-25
2021/04/24 01:40:25;;;;;;;1.00;0.82;;;;;;;26.47;24.15;97222.72;5039412;28;20028;-29
2021/04/24 01:42:51;;;;;;;3.58;0.90;;;;;;;26.47;24.00;97226.16;5034718;28;20033;-27
2021/04/24 01:45:19;;;;;;;1.42;1.05;;;;;;;26.46;24.03;97216.59;5036955;28;20052;-28
2021/04/24 01:47:45;;;;;;;1.15;0.70;;;;;;;26.45;24.01;97214.03;5036972;28;20406;-29
2021/04/24 01:50:12;;;;;;;1.48;0.90;;;;;;;26.46;24.15;97215.72;5035845;28;20258;-30
2021/04/24 01:52:38;;;;;;;1.88;0.82;;;;;;;26.46;24.08;97221.00;5007167;28;20032;-31
2021/04/24 01:55:05;;;;;;;1.58;1.08;;;;;;;26.46;24.12;97215.72;5039213;28;20025;-33
2021/04/24 01:57:31;;;;;;;1.52;0.85;;;;;;;26.44;24.14;97213.22;5032516;28;20403;-31
2021/04/24 01:59:56;;;;;;;1.50;1.02;;;;;;;26.45;24.09;97208.78;5033284;28;20036;-29
2021/04/24 02:02:23;;;;;;;3.70;1.05;;;;;;;26.46;24.13;97213.09;5037869;28;20040;-27
2021/04/24 02:04:49;;;;;;;3.60;1.05;;;;;;;26.45;24.07;97208.78;5035848;28;20521;-26
2021/04/24 02:07:14;;;;;;;1.77;1.00;;;;;;;26.44;23.95;97212.34;5034748;28;20040;-31
2021/04/24 02:09:39;;;;;;;2.53;1.02;;;;;;;26.44;24.11;97207.94;5029592;28;20029;-26
2021/04/24 02:12:10;;;;;;;2.15;0.77;;;;;;;26.44;24.26;97212.34;5031191;28;20403;-30
2021/04/24 02:14:40;;;;;;;4.07;0.95;;;;;;;26.43;24.06;97206.22;5035202;28;20044;-30
2021/04/24 02:17:06;;;;;;;1.38;1.00;;;;;;;26.43;24.16;97205.41;5035847;28;20024;-27
2021/04/24 02:19:36;;;;;;;1.42;0.73;;;;;;;26.43;24.26;97210.66;5029273;28;20221;-28
2021/04/24 02:22:01;;;;;;;2.17;0.82;;;;;;;26.42;23.96;97211.56;5033246;28;20069;-29
2021/04/24 02:24:27;;;;;;;1.75;1.02;;;;;;;26.42;24.06;97204.53;5034558;28;20115;-27
2021/04/24 02:26:52;;;;;;;2.55;0.90;;;;;;;26.43;24.16;97205.41;5035354;28;20024;-29
2021/04/24 02:29:17;;;;;;;1.75;1.10;;;;;;;26.41;24.13;97200.22;5032504;28;20592;-31
2021/04/24 02:31:43;;;;;;;2.20;0.90;;;;;;;26.42;24.03;97198.41;5035623;28;20052;-32
2021/04/24 02:34:08;;;;;;;2.10;1.00;;;;;;;26.42;24.05;97199.28;5035986;28;20407;-30
2021/04/24 02:36:34;;;;;;;1.20;0.88;;;;;;;26.42;24.18;97201.03;5027996;28;20041;-27
2021/04/24 02:38:59;;;;;;;2.33;1.08;;;;;;;26.41;24.08;97204.59;5036042;28;20154;-31
2021/04/24 02:41:24;;;;;;;3.35;1.23;;;;;;;26.40;24.19;97201.16;5027759;28;20029;-28
2021/04/24 02:43:50;;;;;;;2.80;1.05;;;;;;;26.40;24.07;97202.91;5033716;28;20036;-30
2021/04/24 02:46:15;;;;;;;1.48;1.00;;;;;;;26.40;23.96;97208.16;5031193;28;20032;-32
2021/04/24 02:48:41;;;;;;;1.45;0.98;;;;;;;26.40;24.10;97195.03;5036768;28;20600;-29
2021/04/24 02:51:06;;;;;;;1.33;0.70;;;;;;;26.40;24.31;97200.28;5038185;28;20021;-31
2021/04/24 02:53:31;;;;;;;1.30;0.85;;;;;;;26.39;24.24;97202.03;5031870;28;20037;-29
2021/04/24 02:55:57;;;;;;;1.48;0.82;;;;;;;26.39;24.15;97199.41;5034864;28;20032;-32
2021/04/24 02:58:22;;;;;;;1.33;0.75;;;;;;;26.39;24.09;97199.41;5025696;28;20630;-31
2021/04/24 03:00:48;;;;;;;1.45;0.90;;;;;;;26.38;24.19;97191.63;5035087;28;20025;-29
2021/04/24 03:03:14;;;;;;;1.55;0.85;;;;;;;26.39;24.22;97188.06;5034220;28;20039;-30
2021/04/24 03:05:40;;;;;;;1.10;0.70;;;;;;;26.38;24.26;97192.47;5036112;28;20514;-27
2021/04/24 03:08:06;;;;;;;1.13;0.80;;;;;;;26.38;24.19;97186.38;5033363;28;20021;-27
2021/04/24 03:10:31;;;;;;;1.45;0.80;;;;;;;26.37;24.17;97189.91;5033917;28;20017;-26
2021/04/24 03:12:57;;;;;;;1.30;0.82;;;;;;;26.35;24.32;97182.97;5028041;28;20098;-27
2021/04/24 03:15:22;;;;;;;1.23;0.75;;;;;;;26.36;24.49;97183.81;5027699;28;20041;-27
2021/04/24 03:17:48;;;;;;;1.25;0.82;;;;;;;26.36;24.11;97183.81;5036396;28;20029;-26
2021/04/24 03:20:14;;;;;;;3.30;0.93;;;;;;;26.37;24.25;97188.16;5034313;28;20021;-27
2021/04/24 03:22:39;;;;;;;1.55;1.05;;;;;;;26.35;24.16;97188.22;5032570;28;20037;-28
2021/04/24 03:25:06;;;;;;;2.03;1.13;;;;;;;26.34;24.20;97191.78;5033260;28;20326;-31
2021/04/24 03:27:31;;;;;;;2.15;0.90;;;;;;;26.35;24.10;97188.22;5035708;28;20032;-31
2021/04/24 03:29:57;;;;;;;1.52;0.75;;;;;;;26.35;24.19;97192.59;5030131;28;20020;-29
2021/04/24 03:32:22;;;;;;;1.63;0.88;;;;;;;26.35;24.18;97188.22;5033900;28;20064;-26
2021/04/24 03:34:47;;;;;;;1.20;0.70;;;;;;;26.35;24.16;97187.34;5037709;28;20513;-30
2021/04/24 03:37:13;;;;;;;3.08;0.88;;;;;;;26.34;24.24;97180.41;5035889;28;20041;-31
2021/04/24 03:39:38;;;;;;;2.45;1.00;;;;;;;26.33;24.04;97182.19;5030780;28;20025;-29
2021/04/24 03:42:04;;;;;;;1.42;0.70;;;;;;;26.34;24.11;97176.00;5034868;28;20551;-30
2021/04/24 03:44:29;;;;;;;1.42;0.82;;;;;;;26.33;24.32;97173.44;5030240;28;20037;-28
2021/04/24 03:46:55;;;;;;;2.25;0.90;;;;;;;26.33;24.22;97184.81;5036481;28;20040;-28
2021/04/24 03:49:20;;;;;;;1.75;1.08;;;;;;;26.32;24.21;97177.03;5041162;28;20025;-29
2021/04/24 03:51:45;;;;;;;2.65;0.90;;;;;;;26.32;24.10;97180.47;5035992;28;20048;-32
2021/04/24 03:54:11;;;;;;;1.58;0.90;;;;;;;26.33;24.35;97179.56;5032802;28;20029;-31
2021/04/24 03:56:36;;;;;;;3.47;1.10;;;;;;;26.31;24.10;97176.16;5036335;28;20024;-30
2021/04/24 03:59:02;;;;;;;1.65;0.75;;;;;;;26.31;24.30;97176.16;5035361;28;20047;-28
2021/04/24 04:01:27;;;;;;;1.20;0.80;;;;;;;26.31;24.17;97180.56;5031890;28;20555;-29
2021/04/24 04:03:53;;;;;;;1.38;0.80;;;;;;;26.30;24.12;97184.97;5038472;28;20053;-33
2021/04/24 04:06:18;;;;;;;0.85;0.70;;;;;;;26.31;24.12;97181.41;5027707;28;20032;-29
2021/04/24 04:08:43;;;;;;;1.08;0.77;;;;;;;26.30;24.25;97184.97;5024918;28;20045;-27
2021/04/24 04:11:09;;;;;;;0.77;0.60;;;;;;;26.30;24.17;97182.34;5025709;28;20104;-30
2021/04/24 04:13:34;;;;;;;3.85;1.10;;;;;;;26.29;24.37;97183.28;5024891;28;20208;-25
2021/04/24 04:15:59;;;;;;;1.58;0.90;;;;;;;26.30;24.23;97182.34;5030409;28;20021;-28
2021/04/24 04:18:25;;;;;;;0.70;0.70;;;;;;;26.29;24.16;97183.28;5039969;28;20095;-28
2021/04/24 04:20:52;;;;;;;3.28;0.90;;;;;;;26.29;24.20;97188.53;5017008;28;20411;-28
2021/04/24 04:23:17;;;;;;;2.03;0.98;;;;;;;26.28;24.24;97186.81;5038560;28;20037;-29
2021/04/24 04:25:43;;;;;;;1.73;1.05;;;;;;;26.28;24.13;97191.22;5035484;28;20031;-29
2021/04/24 04:28:08;;;;;;;1.42;0.60;;;;;;;26.30;24.21;97197.25;5033591;28;20029;-29
2021/04/24 04:30:34;;;;;;;2.70;0.90;;;;;;;26.29;24.20;97192.91;5027360;28;20074;-26
2021/04/24 04:33:00;;;;;;;0.57;0.57;;;;;;;26.27;24.29;97198.25;5036486;28;20220;-29
2021/04/24 04:35:26;;;;;;;1.80;0.80;;;;;;;26.27;24.22;97200.88;5033976;28;20029;-27
2021/04/24 04:37:51;;;;;;;1.85;0.85;;;;;;;26.26;24.23;97209.69;5037862;28;20560;-25
2021/04/24 04:40:16;;;;;;;1.15;0.75;;;;;;;26.26;24.21;97204.44;5034379;28;20020;-29
2021/04/24 04:42:42;;;;;;;1.00;0.65;;;;;;;26.26;24.43;97204.44;5035133;28;20040;-29
2021/04/24 04:45:08;;;;;;;1.08;0.70;;;;;;;26.26;24.32;97206.19;5033769;28;20017;-29
2021/04/24 04:47:34;;;;;;;3.42;1.00;;;;;;;26.26;24.36;97204.44;5032687;28;20029;-28
2021/04/24 04:49:59;;;;;;;0.80;0.80;;;;;;;26.25;24.30;97210.59;5035919;28;20025;-30
2021/04/24 04:52:25;;;;;;;1.17;0.70;;;;;;;26.25;24.27;97218.47;5036018;28;20040;-26
2021/04/24 04:54:50;;;;;;;1.40;0.82;;;;;;;26.25;24.29;97213.22;5030833;28;20469;-31
2021/04/24 04:57:15;;;;;;;1.25;0.90;;;;;;;26.25;24.09;97213.22;5034853;28;20033;-30
2021/04/24 04:59:42;;;;;;;0.88;0.70;;;;;;;26.25;24.24;97218.47;5034268;28;20029;-29
2021/04/24 05:02:07;;;;;;;1.90;0.98;;;;;;;26.24;24.37;97211.53;5036149;28;20041;-31
2021/04/24 05:04:33;;;;;;;2.20;0.90;;;;;;;26.24;24.32;97211.53;5033919;28;20075;-26
2021/04/24 05:06:59;;;;;;;1.45;0.80;;;;;;;26.23;24.33;97215.91;5033330;28;20020;-27
2021/04/24 05:09:24;;;;;;;2.15;0.80;;;;;;;26.23;24.37;97221.16;5037211;28;20470;-23
2021/04/24 05:11:50;;;;;;;0.85;0.73;;;;;;;26.23;24.24;97225.56;5032018;28;20033;-27
2021/04/24 05:14:16;;;;;;;0.75;0.75;;;;;;;26.23;24.31;97217.66;5036478;28;20115;-27
2021/04/24 05:16:41;;;;;;;1.00;0.75;;;;;;;26.23;24.25;97225.56;5027203;28;20086;-28
2021/04/24 05:19:07;;;;;;;1.02;0.75;;;;;;;26.22;24.20;97222.09;5034561;28;20038;-28
2021/04/24 05:21:33;;;;;;;0.75;0.70;;;;;;;26.23;24.31;97228.19;5027626;28;20703;-26
2021/04/24 05:23:59;;;;;;;1.10;0.70;;;;;;;26.22;24.36;97226.50;5034710;28;20040;-29
2021/04/24 05:26:24;;;;;;;0.70;0.55;;;;;;;26.22;24.23;97223.88;5036776;28;20028;-21
2021/04/24 05:28:50;;;;;;;1.13;0.73;;;;;;;26.22;24.34;97223.88;5034289;28;20033;-28
2021/04/24 05:31:15;;;;;;;1.75;1.00;;;;;;;26.21;24.36;97222.16;5034999;28;20044;-31
2021/04/24 05:33:40;;;;;;;1.17;0.80;;;;;;;26.22;24.37;97223.88;5034442;28;20635;-29
2021/04/24 05:36:10;;;;;;;1.95;0.80;;;;;;;26.22;24.34;97223.88;5035522;28;20300;-29
2021/04/24 05:38:36;;;;;;;2.75;0.80;;;;;;;26.22;24.31;97229.13;5036739;28;20056;-26
2021/04/24 05:41:02;;;;;;;2.72;0.90;;;;;;;26.21;24.39;97227.41;5038159;28;20113;-29
2021/04/24 05:43:27;;;;;;;1.65;1.00;;;;;;;26.21;24.30;97232.69;5026937;28;20033;-30
2021/04/24 05:45:53;;;;;;;2.63;0.70;;;;;;;26.21;24.36;97230.88;5016447;28;20045;-27
2021/04/24 05:48:18;;;;;;;0.68;0.68;;;;;;;26.20;24.18;97225.72;5036255;28;20892;-29
2021/04/24 05:50:43;;;;;;;1.70;0.73;;;;;;;26.21;24.17;97227.41;5025180;28;20079;-33
2021/04/24 05:53:09;;;;;;;0.82;0.50;;;;;;;26.21;24.21;97222.16;5035396;28;20074;-26
2021/04/24 05:55:34;;;;;;;1.65;0.80;;;;;;;26.20;24.39;97220.47;5033089;28;20523;-27
2021/04/24 05:58:00;;;;;;;1.20;0.85;;;;;;;26.21;24.29;97227.41;5029233;28;20121;-30
2021/04/24 06:00:26;;;;;;;1.45;0.70;;;;;;;26.21;24.27;97237.94;5031056;28;20446;-29
2021/04/24 06:02:51;;;;;;;1.35;0.82;;;;;;;26.21;24.37;97230.03;5036081;28;20222;-27
2021/04/24 06:05:16;;;;;;;1.25;0.70;;;;;;;26.20;24.25;97223.09;5033032;28;20083;-32
2021/04/24 06:07:42;;;;;;;1.38;0.90;;;;;;;26.20;24.33;97228.34;5030861;28;20040;-28
2021/04/24 06:10:09;;;;;;;0.90;0.80;;;;;;;26.20;24.36;97236.22;5023886;28;20075;-28
2021/04/24 06:12:35;;;;;;;1.30;0.82;;;;;;;26.19;24.36;97230.13;5037222;28;20032;-27
2021/04/24 06:15:00;;;;;;;1.80;0.75;;;;;;;26.19;24.37;97230.13;5030715;28;20028;-25
2021/04/24 06:17:25;;;;;;;1.83;0.90;;;;;;;26.21;24.29;97227.41;5024933;28;23133;-28
2021/04/24 06:19:51;;;;;;;2.95;0.90;;;;;;;26.20;24.26;97230.97;5035574;28;20028;-27
2021/04/24 06:25:38;;;;;;;1.20;0.85;;;;;;;26.21;24.37;97230.03;5029157;28;20119;-28
2021/04/24 06:28:04;;;;;;;5.20;1.00;;;;;;;26.20;24.38;97229.19;5034881;28;20030;-29
2021/04/24 06:30:29;;;;;;;3.25;1.20;;;;;;;26.20;24.28;97228.34;5011167;28;20021;-27
2021/04/24 06:32:55;;;;;;;12.00;1.55;;;;;;;26.21;24.23;97237.94;5029925;28;20033;-29
2021/04/24 06:35:21;;;;;;;4.18;1.20;;;;;;;26.22;24.34;97226.50;5030765;28;20052;-29
2021/04/24 06:37:46;;;;;;;23.80;2.17;;;;;;;26.21;24.39;97228.25;5028012;28;20035;-29
2021/04/24 06:40:13;;;;;;;13.90;2.35;;;;;;;26.22;24.48;97218.59;5027303;28;20405;-31
2021/04/24 06:42:38;;;;;;;9.52;1.80;;;;;;;26.22;24.47;97229.97;5026520;28;20103;-25
2021/04/24 06:45:05;;;;;;;7.85;1.27;;;;;;;26.23;24.36;97236.06;5029120;28;20368;-28
2021/04/24 06:47:31;;;;;;;9.85;1.48;;;;;;;26.23;24.37;97226.41;5027580;28;20021;-30
2021/04/24 06:49:56;;;;;;;7.40;2.33;;;;;;;26.25;24.29;97230.75;5029875;28;20516;-26
2021/04/24 06:52:21;;;;;;;6.88;2.47;;;;;;;26.25;24.06;97228.13;5022459;28;20049;-24
2021/04/24 06:54:47;;;;;;;15.73;2.90;;;;;;;26.24;23.90;97232.53;5023016;28;20057;-23
2021/04/24 06:57:12;;;;;;;6.63;2.50;;;;;;;26.23;23.53;97230.81;5029209;28;20041;-26
2021/04/24 06:59:38;;;;;;;7.40;2.80;;;;;;;26.21;23.44;97227.41;5029401;28;20044;-28
2021/04/24 07:02:03;;;;;;;7.07;3.35;;;;;;;26.20;23.36;97228.34;5030552;28;20048;-27
2021/04/24 07:04:29;;;;;;;7.78;2.90;;;;;;;26.17;23.19;97237.22;5027061;28;20041;-26
2021/04/24 07:06:54;;;;;;;5.05;2.80;;;;;;;26.16;23.24;97232.06;5026104;28;20032;-29
2021/04/24 07:09:20;;;;;;;4.65;2.80;;;;;;;26.16;23.17;97229.41;5026790;28;20750;-28
2021/04/24 07:11:45;;;;;;;5.80;2.85;;;;;;;26.15;22.91;97225.94;5028025;28;20037;-28
2021/04/24 07:14:10;;;;;;;8.80;2.85;;;;;;;26.15;22.89;97227.69;5027489;28;20033;-25
2021/04/24 07:16:36;;;;;;;10.05;3.00;;;;;;;26.15;22.93;97222.44;5028189;28;20025;-32
2021/04/24 07:19:02;;;;;;;8.77;3.10;;;;;;;26.16;22.88;97221.53;5028574;28;20037;-25
2021/04/24 07:21:27;;;;;;;9.20;3.40;;;;;;;26.16;22.68;97218.91;5027216;28;20100;-27
2021/04/24 07:23:52;;;;;;;8.63;3.70;;;;;;;26.16;22.77;97214.50;5033623;28;20041;-30
2021/04/24 07:26:18;;;;;;;4.82;3.03;;;;;;;26.17;22.80;97220.59;5030948;28;20024;-26
2021/04/24 07:28:43;;;;;;;6.85;2.90;;;;;;;26.18;22.83;97217.06;5031049;28;20033;-29
2021/04/24 07:31:09;;;;;;;4.65;3.20;;;;;;;26.16;22.68;97218.91;5033552;28;20021;-27
2021/04/24 07:33:35;;;;;;;6.63;3.60;;;;;;;26.18;22.61;97220.53;5032112;28;20517;-26
2021/04/24 07:36:00;;;;;;;6.18;3.40;;;;;;;26.18;22.63;97214.41;5031384;28;20025;-27
2021/04/24 07:38:26;;;;;;;5.88;2.97;;;;;;;26.18;22.57;97215.28;5031891;28;20621;-30
2021/04/24 07:40:51;;;;;;;9.68;3.38;;;;;;;26.19;22.33;97214.34;5031290;28;20029;-29
2021/04/24 07:43:16;;;;;;;4.88;3.25;;;;;;;26.20;22.33;97209.97;5030166;28;20037;-27
2021/04/24 07:45:42;;;;;;;6.15;3.60;;;;;;;26.20;22.22;97210.78;5031976;28;20029;-27
2021/04/24 07:48:07;;;;;;;6.80;3.85;;;;;;;26.20;22.28;97209.97;5032682;28;20616;-27
2021/04/24 07:50:33;;;;;;;5.68;3.38;;;;;;;26.19;22.19;97209.09;5031738;28;20048;-28
2021/04/24 07:52:59;;;;;;;9.95;3.63;;;;;;;26.19;21.98;97198.59;5032471;28;20123;-28
2021/04/24 07:55:25;;;;;;;5.90;3.30;;;;;;;26.20;22.11;97199.47;5027127;28;20033;-25
2021/04/24 07:57:50;;;;;;;6.18;3.72;;;;;;;26.21;22.16;97201.97;5032592;28;20029;-25
2021/04/24 08:00:16;;;;;;;6.13;3.30;;;;;;;26.20;22.04;97202.91;5030627;28;20021;-29
2021/04/24 08:02:42;;;;;;;5.60;3.30;;;;;;;26.21;22.12;97195.91;5030653;28;20032;-28
2021/04/24 08:05:08;;;;;;;7.65;3.30;;;;;;;26.21;22.12;97201.16;5030091;28;20249;-31
2021/04/24 08:07:33;;;;;;;7.47;3.08;;;;;;;26.22;22.04;97205.47;5031412;28;20033;-28
2021/04/24 08:09:59;;;;;;;5.55;3.30;;;;;;;26.23;22.12;97201.91;5026073;28;20029;-29
2021/04/24 08:12:24;;;;;;;5.78;2.88;;;;;;;26.25;22.29;97207.09;5029331;28;20041;-24
2021/04/24 08:14:50;;;;;;;5.43;2.95;;;;;;;26.26;22.15;97214.06;4997210;28;20086;-29
2021/04/24 08:17:16;;;;;;;6.55;3.33;;;;;;;26.26;22.18;97207.06;5012290;28;20151;-28
2021/04/24 08:19:41;;;;;;;7.40;3.53;;;;;;;26.27;21.96;97205.28;5029753;28;20747;-30
2021/04/24 08:22:07;;;;;;;6.97;3.58;;;;;;;26.27;22.07;97206.13;5030580;28;20036;-26
2021/04/24 08:24:33;;;;;;;8.80;3.50;;;;;;;26.28;22.12;97207.00;5031894;28;20052;-27
2021/04/24 08:26:58;;;;;;;20.52;5.32;;;;;;;26.24;21.30;97206.25;5014526;28;20025;-30
2021/04/24 08:29:24;;;;;;;47.17;6.70;;;;;;;26.15;20.94;97201.44;5032562;28;20029;-28
2021/04/24 08:31:49;;;;;;;15.20;6.65;;;;;;;26.04;20.38;97204.56;5036930;28;20584;-31
2021/04/24 08:34:14;;;;;;;15.50;6.97;;;;;;;25.89;20.05;97198.28;5034855;28;20021;-32
2021/04/24 08:36:40;;;;;;;25.33;6.63;;;;;;;25.76;19.77;97204.13;5032467;28;20028;-29
2021/04/24 08:39:06;;;;;;;28.95;5.45;;;;;;;25.69;20.40;97200.06;5028139;28;20035;-28
2021/04/24 08:41:31;;;;;;;10.70;4.53;;;;;;;25.64;20.47;97199.44;5024178;28;20025;-30
2021/04/24 08:43:57;;;;;;;23.15;3.88;;;;;;;25.63;20.62;97200.34;5026722;28;20145;-33
2021/04/24 08:46:23;;;;;;;17.23;4.25;;;;;;;25.62;21.02;97198.66;5022496;28;21014;-31
2021/04/24 08:48:53;;;;;;;10.38;3.22;;;;;;;25.59;21.20;97186.50;5022002;28;20486;-26
2021/04/24 08:51:22;;;;;;;8.40;3.20;;;;;;;25.64;20.95;97192.41;5020271;28;20214;-31
2021/04/24 08:53:48;;;;;;;25.30;3.83;;;;;;;25.67;21.20;97192.25;5022132;28;20178;-33
2021/04/24 08:56:14;;;;;;;22.15;3.58;;;;;;;25.70;21.44;97189.50;5023685;28;20044;-28
2021/04/24 08:58:39;;;;;;;20.75;2.90;;;;;;;25.72;21.41;97194.69;5030118;28;20044;-28
2021/04/24 09:01:05;;;;;;;8.15;2.78;;;;;;;25.75;21.56;97183.19;5033300;28;20021;-29
2021/04/24 09:03:30;;;;;;;6.63;2.28;;;;;;;25.78;21.47;97178.63;5038444;28;20029;-31
2021/04/24 09:05:56;;;;;;;8.52;2.50;;;;;;;25.80;21.55;97182.06;5031797;28;20040;-34
2021/04/24 09:08:26;;;;;;;16.13;2.60;;;;;;;25.83;21.69;97178.44;5030948;28;20029;-29
2021/04/24 09:10:55;;;;;;;10.18;2.58;;;;;;;25.85;21.50;97175.72;5032896;28;20032;-31
2021/04/24 09:13:22;;;;;;;8.60;2.40;;;;;;;25.87;21.72;97177.34;5035687;28;20426;-28
2021/04/24 09:15:48;;;;;;;8.15;2.28;;;;;;;25.89;21.80;97166.78;5029877;28;20040;-32
2021/04/24 09:18:13;;;;;;;5.93;2.00;;;;;;;25.90;21.93;97165.84;5029951;28;20090;-33
2021/04/24 09:20:55;;;;;;;7.93;2.50;;;;;;;25.93;21.99;97170.97;5009873;28;20080;-27
2021/04/24 09:23:31;;;;;;;13.05;2.50;;;;;;;25.94;21.98;97162.16;5033674;28;20163;-30
2021/04/24 09:26:04;;;;;;;6.63;2.42;;;;;;;25.95;21.90;97159.47;5031831;28;20557;-29
2021/04/24 09:28:37;;;;;;;10.40;2.17;;;;;;;25.98;21.95;97157.59;5034128;28;20227;-32
2021/04/24 09:31:13;;;;;;;14.38;2.13;;;;;;;25.98;22.11;97150.59;5030644;28;20033;-29
2021/04/24 09:33:39;;;;;;;10.32;2.10;;;;;;;26.00;22.20;97153.97;5035244;28;20887;-26
2021/04/24 09:36:07;;;;;;;8.40;3.50;;;;;;;26.02;21.54;97153.91;5032108;28;20036;-29
2021/04/24 09:38:36;;;;;;;7.28;2.58;;;;;;;26.02;21.84;97160.03;5035301;28;20044;-29
2021/04/24 09:41:10;;;;;;;7.03;2.97;;;;;;;26.03;21.62;97153.84;5030324;28;20017;-32
2021/04/24 09:44:05;;;;;;;7.15;2.05;;;;;;;26.04;21.85;97147.66;5029574;28;20150;-29
2021/04/24 09:46:46;;;;;;;6.68;3.15;;;;;;;26.05;21.58;97145.88;5011836;28;20048;-25
2021/04/24 09:49:15;;;;;;;7.60;2.05;;;;;;;26.06;21.91;97145.81;5024204;28;20037;-30
2021/04/24 09:51:50;;;;;;;4.85;2.00;;;;;;;26.06;21.95;97140.56;5023666;28;20029;-33
2021/04/24 09:54:16;;;;;;;16.58;3.20;;;;;;;26.07;22.55;97137.00;5019350;28;20110;-30
2021/04/24 09:56:41;;;;;;;6.80;1.83;;;;;;;26.12;22.63;97138.56;5015326;28;20106;-30
2021/04/24 09:59:08;;;;;;;6.53;1.88;;;;;;;26.17;22.44;97124.28;5011845;28;20564;-30
2021/04/24 10:01:34;;;;;;;6.20;2.00;;;;;;;26.20;22.29;97120.66;5005715;28;20083;-32
2021/04/24 10:04:00;;;;;;;5.85;1.83;;;;;;;26.22;22.33;97118.78;5035122;28;20120;-31
2021/04/24 10:06:26;;;;;;;13.15;2.25;;;;;;;26.23;22.12;97115.22;5037875;28;20033;-27
2021/04/24 10:09:20;;;;;;;5.32;2.22;;;;;;;26.24;22.17;97116.94;5032077;28;20507;-30
2021/04/24 10:11:59;;;;;;;8.23;2.25;;;;;;;26.25;22.25;97117.78;5029103;28;20671;-29
2021/04/24 10:14:35;;;;;;;9.65;2.00;;;;;;;26.24;22.23;97122.19;5020483;28;20033;-28
2021/04/24 10:17:06;;;;;;;10.25;2.15;;;;;;;26.25;22.03;97117.78;5033586;28;20075;-30
2021/04/24 10:19:31;;;;;;;5.15;1.90;;;;;;;26.23;22.29;97104.72;5032340;28;20129;-27
2021/04/24 10:21:57;;;;;;;6.72;2.20;;;;;;;26.24;22.25;97109.06;5039140;28;20984;-34
2021/04/24 10:24:23;;;;;;;5.00;2.00;;;;;;;26.23;22.23;97105.56;5033811;28;20633;-30
2021/04/24 10:26:49;;;;;;;4.93;1.95;;;;;;;26.23;22.17;97099.47;5036570;28;20020;-30
2021/04/24 10:29:14;;;;;;;11.93;2.38;;;;;;;26.23;22.40;97099.47;5036600;28;20025;-33
2021/04/24 10:31:40;;;;;;;7.10;2.03;;;;;;;26.23;22.23;97100.31;5019067;28;20033;-32
2021/04/24 10:34:06;;;;;;;3.03;1.58;;;;;;;26.23;22.42;97099.47;5036033;28;20036;-28
2021/04/24 10:36:33;;;;;;;7.70;1.77;;;;;;;26.23;22.27;97096.84;5038213;28;20029;-27
2021/04/24 10:38:58;;;;;;;5.30;1.92;;;;;;;26.24;22.32;97095.94;5035634;28;21705;-31
2021/04/24 10:41:41;;;;;;;6.63;2.10;;;;;;;26.24;22.29;97095.94;5024423;28;20033;-31
2021/04/24 10:44:08;;;;;;;5.55;2.03;;;;;;;26.25;22.32;97092.38;5012802;28;20476;-36
2021/04/24 10:46:44;;;;;;;5.70;1.90;;;;;;;26.27;22.73;97084.44;5017958;28;20863;-33
2021/04/24 10:49:16;;;;;;;6.70;1.80;;;;;;;26.28;22.67;97086.97;5020758;28;20040;-31
2021/04/24 10:51:51;;;;;;;5.57;1.90;;;;;;;26.30;22.50;97089.53;5019601;28;20071;-30
2021/04/24 10:54:17;;;;;;;7.38;1.95;;;;;;;26.31;22.63;97081.56;5021464;28;20025;-31
2021/04/24 10:56:42;;;;;;;4.90;1.90;;;;;;;26.31;22.51;97081.56;5020241;28;20094;-31
2021/04/24 10:59:21;;;;;;;7.32;1.90;;;;;;;26.32;22.51;97083.25;5002350;28;20037;-30
2021/04/24 11:02:07;;;;;;;4.68;1.90;;;;;;;26.32;22.71;97075.38;5027922;28;20565;-25
2021/04/24 11:04:45;;;;;;;9.55;2.33;;;;;;;26.33;22.56;97074.47;5027225;28;20041;-31
2021/04/24 11:07:24;;;;;;;6.78;1.73;;;;;;;26.34;22.56;97078.81;5024126;28;20036;-33
2021/04/24 11:10:12;;;;;;;4.38;1.80;;;;;;;26.34;22.68;97075.31;5025752;28;20396;-31
2021/04/24 11:12:41;;;;;;;6.68;2.15;;;;;;;26.36;22.76;97073.47;5024517;28;20040;-26
2021/04/24 11:15:07;;;;;;;8.23;1.77;;;;;;;26.35;22.88;97071.75;5024519;28;20029;-32
2021/04/24 11:17:33;;;;;;;7.78;1.98;;;;;;;26.34;22.88;97073.53;5024041;28;20028;-29
2021/04/24 11:19:59;;;;;;;6.80;1.98;;;;;;;26.35;22.93;97069.97;5024568;28;20187;-27
2021/04/24 11:22:38;;;;;;;9.13;2.08;;;;;;;26.38;22.89;97065.50;5018542;28;20547;-25
2021/04/24 11:25:23;;;;;;;4.88;1.95;;;;;;;26.39;22.96;97069.84;5024195;28;20048;-29
2021/04/24 11:28:05;;;;;;;11.70;2.33;;;;;;;26.40;22.87;97067.13;5025882;28;20075;-30
2021/04/24 11:30:50;;;;;;;6.88;2.22;;;;;;;26.40;22.89;97053.13;5023517;28;21062;-28
2021/04/24 11:33:42;;;;;;;5.45;1.83;;;;;;;26.41;23.12;97062.69;5023856;28;20127;-27